Martha's Vineyard, Massachusetts
Current Conditions -  °F | °C
As of 4:05 PM on Friday 31 Oct 2014 (Local Time) from KMVY Reporting Station
Overcast Overcast  
Wind Chill: 52°   Ceiling: 2700
Heat Index: 52°   Visibility: 10mi
Dew Point: 45°   Wind: 16mph
Humidity: 77%   Direction: 50°NE
Pressure: 29.93"   Gusts: NA
Location:  41.39°N, 70.61°W
Report Text: KMVY 312005Z 05014KT 10SM SCT019 BKN027 OVC037 11/07 A2993 RMK AO2 T01110072
Loading
Personal Weather Stations






























Interactive Weather Map
Tropical Storm Tracking
New forecast layout! Learn more

10-Day Weather Forecast

Advertisements
Track Severe Weather on mobile